createdAt,value
2023-05-13T00:01:41.928Z,6.47
2023-05-13T00:04:12.020Z,7.45
2023-05-13T00:09:10.163Z,5.97
2023-05-13T00:11:38.290Z,6.25
2023-05-13T00:14:09.707Z,5.55
2023-05-13T00:16:40.708Z,5.88
2023-05-13T00:19:08.545Z,5.50
2023-05-13T00:21:36.786Z,5.30
2023-05-13T00:24:05.780Z,5.90
2023-05-13T00:26:33.752Z,5.63
2023-05-13T00:29:01.905Z,4.95
2023-05-13T00:31:30.161Z,4.95
2023-05-13T00:33:58.044Z,6.15
2023-05-13T00:36:27.455Z,4.55
2023-05-13T00:38:55.310Z,4.35
2023-05-13T00:41:23.806Z,4.30
2023-05-13T00:43:56.013Z,4.00
2023-05-13T00:46:24.658Z,4.35
2023-05-13T00:48:52.644Z,4.32
2023-05-13T00:51:20.535Z,4.82
2023-05-13T00:53:49.348Z,4.13
2023-05-13T00:56:22.005Z,5.05
2023-05-13T00:58:50.298Z,4.10
2023-05-13T01:01:28.690Z,5.05
2023-05-13T01:04:21.292Z,4.40
2023-05-13T01:07:17.894Z,4.35
2023-05-13T01:10:06.154Z,4.20
2023-05-13T01:12:40.584Z,4.68
2023-05-13T01:15:21.568Z,4.97
2023-05-13T01:18:06.540Z,5.20
2023-05-13T01:20:35.490Z,5.47
2023-05-13T01:23:04.192Z,5.80
2023-05-13T01:25:33.258Z,7.15
2023-05-13T01:28:01.766Z,6.60
2023-05-13T01:30:31.298Z,7.18
2023-05-13T01:33:00.178Z,6.88
2023-05-13T01:35:31.232Z,6.97
2023-05-13T01:38:04.108Z,6.47
2023-05-13T01:40:34.719Z,6.95
2023-05-13T01:43:05.988Z,7.28
2023-05-13T01:45:33.943Z,6.97
2023-05-13T01:48:02.853Z,8.85
2023-05-13T01:50:42.691Z,7.95
2023-05-13T01:53:14.555Z,7.75
2023-05-13T01:55:44.164Z,8.52
2023-05-13T01:58:13.946Z,8.80
2023-05-13T02:00:44.190Z,7.65
2023-05-13T02:03:15.150Z,8.02
2023-05-13T02:05:43.163Z,7.80
2023-05-13T02:08:11.140Z,8.38
2023-05-13T02:10:39.780Z,8.10
2023-05-13T02:13:07.907Z,8.48
2023-05-13T02:15:35.630Z,9.48
2023-05-13T02:18:03.685Z,7.60
2023-05-13T02:20:31.743Z,8.10
2023-05-13T02:22:59.710Z,8.25
2023-05-13T02:25:29.269Z,8.35
2023-05-13T02:27:57.097Z,8.55
2023-05-13T02:30:27.408Z,8.35
2023-05-13T02:35:26.416Z,8.10
2023-05-13T02:37:54.660Z,8.07
2023-05-13T02:40:22.870Z,9.45
2023-05-13T02:42:51.883Z,9.63
2023-05-13T02:45:25.738Z,9.23
2023-05-13T02:47:57.568Z,9.73
2023-05-13T02:50:26.541Z,9.60
2023-05-13T02:52:56.661Z,8.60
2023-05-13T02:55:25.700Z,10.67
2023-05-13T02:57:53.728Z,8.13
2023-05-13T03:00:22.792Z,8.10
2023-05-13T03:02:51.184Z,8.88
2023-05-13T03:05:19.392Z,9.15
2023-05-13T03:07:47.230Z,9.63
2023-05-13T03:10:14.894Z,10.07
2023-05-13T03:12:43.466Z,8.43
2023-05-13T03:15:11.895Z,8.52
2023-05-13T03:17:39.872Z,8.93
2023-05-13T03:20:08.460Z,9.00
2023-05-13T03:22:38.801Z,8.83
2023-05-13T03:25:07.419Z,8.77
2023-05-13T03:27:46.265Z,7.80
2023-05-13T03:30:15.110Z,8.13
2023-05-13T03:32:52.430Z,8.57
2023-05-13T03:35:20.299Z,9.18
2023-05-13T03:37:48.585Z,8.98
2023-05-13T03:40:17.577Z,9.73
2023-05-13T03:42:45.749Z,9.73
2023-05-13T03:45:14.020Z,10.07
2023-05-13T03:47:44.291Z,9.90
2023-05-13T03:50:17.710Z,10.15
2023-05-13T03:55:17.457Z,9.15
2023-05-13T03:57:48.643Z,10.52
2023-05-13T04:00:19.067Z,9.82
2023-05-13T04:02:49.538Z,9.63
2023-05-13T04:05:17.871Z,9.40
2023-05-13T04:10:15.801Z,10.75
2023-05-13T04:12:43.942Z,10.43
2023-05-13T04:15:12.054Z,11.15
2023-05-13T04:17:41.296Z,10.43
2023-05-13T04:20:10.154Z,11.15
2023-05-13T04:22:37.864Z,12.07
2023-05-13T04:25:06.043Z,11.18
2023-05-13T04:27:34.129Z,11.23
2023-05-13T04:30:11.567Z,12.65
2023-05-13T04:32:40.888Z,12.30
2023-05-13T04:35:10.550Z,12.48
2023-05-13T04:37:39.125Z,12.70
2023-05-13T04:40:09.890Z,12.25
2023-05-13T04:42:38.630Z,11.63
2023-05-13T04:45:07.383Z,13.05
2023-05-13T04:47:36.036Z,11.85
2023-05-13T04:50:07.571Z,12.23
2023-05-13T04:52:37.383Z,12.63
2023-05-13T04:57:34.373Z,11.55
2023-05-13T05:00:06.308Z,12.00
2023-05-13T05:02:36.925Z,11.32
2023-05-13T05:05:05.742Z,11.73
2023-05-13T05:07:35.648Z,12.10
2023-05-13T05:10:04.228Z,12.55
2023-05-13T05:12:32.593Z,12.23
2023-05-13T05:15:00.735Z,13.10
2023-05-13T05:17:32.918Z,12.43
2023-05-13T05:20:03.997Z,12.57
2023-05-13T05:22:32.177Z,11.55
2023-05-13T05:25:00.129Z,10.90
2023-05-13T05:27:27.976Z,12.15
2023-05-13T05:29:59.621Z,11.70
2023-05-13T05:32:27.758Z,11.77
2023-05-13T05:34:55.696Z,11.30
2023-05-13T05:37:23.743Z,12.23
2023-05-13T05:39:52.626Z,11.00
2023-05-13T05:42:23.584Z,12.15
2023-05-13T05:44:51.480Z,12.98
2023-05-13T05:47:19.894Z,10.35
2023-05-13T05:49:47.758Z,11.88
2023-05-13T05:52:16.153Z,10.95
2023-05-13T05:54:44.449Z,9.65
2023-05-13T05:57:12.318Z,9.25
2023-05-13T05:59:40.740Z,9.50
2023-05-13T06:02:09.016Z,9.70
2023-05-13T06:04:37.362Z,9.32
2023-05-13T06:07:05.415Z,8.70
2023-05-13T06:09:34.791Z,9.30
2023-05-13T06:12:02.952Z,9.25
2023-05-13T06:14:33.661Z,8.48
2023-05-13T06:17:02.177Z,8.32
2023-05-13T06:19:31.289Z,8.07
2023-05-13T06:22:02.590Z,9.88
2023-05-13T06:24:31.673Z,8.40
2023-05-13T06:26:59.776Z,8.05
2023-05-13T06:29:27.991Z,8.70
2023-05-13T06:31:55.859Z,8.90
2023-05-13T06:34:23.672Z,9.40
2023-05-13T06:36:52.367Z,9.20
2023-05-13T06:39:20.446Z,9.55
2023-05-13T06:41:48.825Z,9.60
2023-05-13T06:44:17.913Z,9.70
2023-05-13T06:46:47.826Z,9.80
2023-05-13T06:49:15.609Z,8.55
2023-05-13T06:51:43.365Z,8.93
2023-05-13T06:54:11.047Z,8.38
2023-05-13T06:56:38.801Z,8.75
2023-05-13T06:59:06.453Z,9.40
2023-05-13T07:01:34.200Z,9.43
2023-05-13T07:04:02.666Z,9.70
2023-05-13T07:06:30.717Z,7.93
2023-05-13T07:09:00.310Z,8.35
2023-05-13T07:11:29.336Z,8.40
2023-05-13T07:13:57.299Z,9.13
2023-05-13T07:16:25.478Z,8.43
2023-05-13T07:18:54.824Z,9.02
2023-05-13T07:21:23.358Z,8.93
2023-05-13T07:23:52.160Z,8.57
2023-05-13T07:26:21.728Z,10.05
2023-05-13T07:28:50.346Z,9.55
2023-05-13T07:31:18.748Z,7.88
2023-05-13T07:33:47.591Z,8.68
2023-05-13T07:36:15.770Z,9.35
2023-05-13T07:38:44.302Z,8.40
2023-05-13T07:41:12.914Z,8.02
2023-05-13T07:43:41.049Z,8.73
2023-05-13T07:46:09.525Z,8.50
2023-05-13T07:48:37.384Z,8.00
2023-05-13T07:51:05.502Z,7.38
2023-05-13T07:53:33.429Z,8.27
2023-05-13T07:56:01.298Z,7.57
2023-05-13T07:58:29.144Z,8.48
2023-05-13T08:00:57.835Z,7.57
2023-05-13T08:03:25.786Z,8.68
2023-05-13T08:05:53.697Z,8.68
2023-05-13T08:08:21.449Z,8.30
2023-05-13T08:10:49.214Z,7.35
2023-05-13T08:13:22.195Z,8.43
2023-05-13T08:15:49.966Z,7.18
2023-05-13T08:18:17.752Z,7.30
2023-05-13T08:20:45.582Z,8.05
2023-05-13T08:23:13.367Z,7.47
2023-05-13T08:25:41.282Z,8.32
2023-05-13T08:28:09.061Z,7.40
2023-05-13T08:30:36.767Z,6.82
2023-05-13T08:33:05.665Z,7.43
2023-05-13T08:35:36.362Z,8.10
2023-05-13T08:38:05.653Z,7.28
2023-05-13T08:40:37.180Z,7.40
2023-05-13T08:43:06.300Z,7.05
2023-05-13T08:45:36.453Z,7.20
2023-05-13T08:48:06.089Z,7.00
2023-05-13T08:50:34.204Z,7.55
2023-05-13T08:53:03.341Z,7.15
2023-05-13T08:55:31.752Z,7.25
2023-05-13T08:57:59.717Z,6.97
2023-05-13T09:00:27.551Z,7.32
2023-05-13T09:02:55.453Z,7.07
2023-05-13T09:05:25.136Z,7.28
2023-05-13T09:07:53.958Z,6.43
2023-05-13T09:10:21.877Z,7.55
2023-05-13T09:12:54.621Z,7.30
2023-05-13T09:15:24.591Z,7.47
2023-05-13T09:17:56.178Z,6.53
2023-05-13T09:20:26.332Z,6.93
2023-05-13T09:23:01.412Z,6.45
2023-05-13T09:25:30.664Z,7.07
2023-05-13T09:28:03.616Z,6.50
2023-05-13T09:30:43.335Z,6.85
2023-05-13T09:33:20.506Z,6.30
2023-05-13T09:35:53.524Z,5.88
2023-05-13T09:38:34.755Z,6.32
2023-05-13T09:41:03.757Z,6.05
2023-05-13T09:43:34.888Z,6.13
2023-05-13T09:46:04.803Z,5.63
2023-05-13T09:48:34.146Z,6.15
2023-05-13T09:51:01.994Z,6.20
2023-05-13T09:53:29.835Z,6.38
2023-05-13T09:56:00.092Z,5.53
2023-05-13T09:58:32.010Z,5.70
2023-05-13T10:01:00.686Z,5.43
2023-05-13T10:03:29.192Z,10.05
2023-05-13T10:05:59.019Z,12.70
2023-05-13T10:08:29.319Z,4.95
2023-05-13T10:10:57.775Z,4.07
2023-05-13T10:13:26.396Z,4.45
2023-05-13T10:15:55.494Z,4.90
2023-05-13T10:18:24.342Z,4.20
2023-05-13T10:20:55.518Z,4.35
2023-05-13T10:23:24.587Z,5.30
2023-05-13T10:25:55.389Z,3.97
2023-05-13T10:28:24.710Z,4.03
2023-05-13T10:30:52.876Z,4.20
2023-05-13T10:33:21.268Z,4.13
2023-05-13T10:36:13.194Z,4.13
2023-05-13T10:39:17.755Z,4.53
2023-05-13T10:42:13.529Z,3.90
2023-05-13T10:44:41.512Z,4.13
2023-05-13T10:47:11.279Z,4.60
2023-05-13T10:49:39.735Z,4.60
2023-05-13T10:52:11.549Z,4.32
2023-05-13T10:54:42.346Z,4.90
2023-05-13T10:57:10.557Z,4.07
2023-05-13T11:00:18.287Z,4.38
2023-05-13T11:02:52.287Z,3.80
2023-05-13T11:05:23.814Z,4.03
2023-05-13T11:07:58.373Z,4.28
2023-05-13T11:10:31.362Z,4.28
2023-05-13T11:13:17.035Z,4.50
2023-05-13T11:15:55.661Z,4.00
2023-05-13T11:18:31.010Z,3.90
2023-05-13T11:21:07.767Z,4.45
2023-05-13T11:23:57.081Z,4.18
2023-05-13T11:26:25.076Z,4.50
2023-05-13T11:29:03.782Z,4.88
2023-05-13T11:31:47.616Z,4.60
2023-05-13T11:34:15.546Z,4.38
2023-05-13T11:36:48.849Z,3.70
2023-05-13T11:39:21.458Z,4.10
2023-05-13T11:41:50.487Z,4.05
2023-05-13T11:44:19.934Z,4.13
2023-05-13T11:46:54.760Z,4.38
2023-05-13T11:49:33.169Z,4.07
2023-05-13T11:52:04.840Z,4.20
2023-05-13T11:55:01.113Z,3.65
2023-05-13T11:57:34.198Z,3.70
2023-05-13T12:00:08.476Z,3.90
2023-05-13T12:02:44.665Z,3.78
2023-05-13T12:05:16.495Z,3.50
2023-05-13T12:07:44.405Z,3.53
2023-05-13T12:10:12.544Z,4.22
2023-05-13T12:12:43.265Z,3.80
2023-05-13T12:15:14.349Z,3.80
2023-05-13T12:17:42.844Z,3.35
2023-05-13T12:20:15.781Z,3.30
2023-05-13T12:22:46.461Z,3.45
2023-05-13T12:25:46.987Z,3.55
2023-05-13T12:28:22.294Z,3.25
2023-05-13T12:31:00.848Z,3.30
2023-05-13T12:33:33.750Z,2.80
2023-05-13T12:36:21.842Z,3.40
2023-05-13T12:39:00.205Z,2.92
2023-05-13T12:41:36.550Z,3.25
2023-05-13T12:44:09.454Z,3.22
2023-05-13T12:46:38.317Z,3.30
2023-05-13T12:49:06.505Z,5.10
2023-05-13T12:51:34.872Z,4.53
2023-05-13T12:54:02.666Z,5.13
2023-05-13T12:56:31.675Z,4.53
2023-05-13T12:58:59.589Z,4.82
2023-05-13T13:01:27.544Z,4.85
2023-05-13T13:03:55.804Z,4.60
2023-05-13T13:06:23.991Z,4.60
2023-05-13T13:08:52.227Z,4.32
2023-05-13T13:11:20.208Z,4.78
2023-05-13T13:13:49.867Z,4.60
2023-05-13T13:16:17.655Z,4.40
2023-05-13T13:18:46.049Z,5.28
2023-05-13T13:21:13.990Z,4.85
2023-05-13T13:23:42.687Z,4.82
2023-05-13T13:26:11.353Z,4.32
2023-05-13T13:28:39.242Z,4.63
2023-05-13T13:31:07.913Z,4.30
2023-05-13T13:33:36.800Z,4.10
2023-05-13T13:36:06.622Z,4.43
2023-05-13T13:38:34.958Z,3.97
2023-05-13T13:41:04.075Z,4.20
2023-05-13T13:43:32.118Z,4.43
2023-05-13T13:46:02.034Z,4.50
2023-05-13T13:48:29.938Z,4.40
2023-05-13T13:50:59.610Z,5.43
2023-05-13T13:53:27.401Z,4.32
2023-05-13T13:55:55.183Z,4.93
2023-05-13T13:58:23.184Z,4.60
2023-05-13T14:00:51.107Z,4.38
2023-05-13T14:03:19.524Z,4.25
2023-05-13T14:05:48.338Z,4.10
2023-05-13T14:08:16.190Z,4.43
2023-05-13T14:10:44.089Z,4.10
2023-05-13T14:13:11.857Z,4.32
2023-05-13T14:15:39.551Z,4.40
2023-05-13T14:18:08.468Z,4.05
2023-05-13T14:20:36.766Z,4.03
2023-05-13T14:23:05.556Z,4.13
2023-05-13T14:25:33.497Z,4.27
2023-05-13T14:28:01.634Z,4.25
2023-05-13T14:30:29.497Z,3.70
2023-05-13T14:32:57.349Z,4.15
2023-05-13T14:35:25.270Z,4.28
2023-05-13T14:37:53.113Z,3.72
2023-05-13T14:40:21.218Z,4.50
2023-05-13T14:42:49.598Z,3.92
2023-05-13T14:45:18.572Z,4.05
2023-05-13T14:47:46.894Z,4.10
2023-05-13T14:50:16.037Z,3.85
2023-05-13T14:52:43.983Z,4.40
2023-05-13T14:55:12.035Z,5.15
2023-05-13T14:57:39.958Z,4.40
2023-05-13T15:00:08.769Z,4.43
2023-05-13T15:02:37.186Z,3.95
2023-05-13T15:05:05.620Z,4.72
2023-05-13T15:07:33.591Z,4.30
2023-05-13T15:10:01.465Z,4.88
2023-05-13T15:12:29.705Z,4.55
2023-05-13T15:14:58.433Z,4.45
2023-05-13T15:17:26.872Z,4.60
2023-05-13T15:19:54.827Z,4.28
2023-05-13T15:22:22.605Z,4.85
2023-05-13T15:24:50.649Z,4.38
2023-05-13T15:27:19.620Z,4.95
2023-05-13T15:29:47.493Z,4.40
2023-05-13T15:32:15.461Z,4.65
2023-05-13T15:34:43.861Z,5.70
2023-05-13T15:37:11.607Z,5.82
2023-05-13T15:39:39.550Z,5.22
2023-05-13T15:42:07.500Z,4.93
2023-05-13T15:44:35.494Z,5.60
2023-05-13T15:47:06.234Z,5.63
2023-05-13T15:49:34.309Z,7.28
2023-05-13T15:52:02.971Z,6.72
2023-05-13T15:54:32.300Z,7.70
2023-05-13T15:57:01.172Z,7.00
2023-05-13T15:59:30.197Z,7.70
2023-05-13T16:01:58.215Z,7.47
2023-05-13T16:04:26.475Z,7.38
2023-05-13T16:06:54.294Z,13.13
2023-05-13T16:09:21.971Z,12.05
2023-05-13T16:11:50.222Z,7.78
2023-05-13T16:14:19.426Z,8.63
2023-05-13T16:19:15.587Z,7.20
2023-05-13T16:21:43.315Z,7.95
2023-05-13T16:24:11.297Z,6.47
2023-05-13T16:26:39.435Z,6.97
2023-05-13T16:29:07.442Z,7.00
2023-05-13T16:31:36.158Z,5.88
2023-05-13T16:34:04.045Z,5.57
2023-05-13T16:36:31.779Z,7.13
2023-05-13T16:38:59.904Z,7.53
2023-05-13T16:41:27.559Z,6.38
2023-05-13T16:43:55.174Z,6.95
2023-05-13T16:46:22.999Z,7.50
2023-05-13T16:48:50.953Z,6.70
2023-05-13T16:51:19.041Z,6.25
2023-05-13T16:53:49.884Z,5.97
2023-05-13T16:56:18.073Z,6.00
2023-05-13T16:58:49.002Z,5.90
2023-05-13T17:01:16.751Z,5.68
2023-05-13T17:03:44.624Z,5.05
2023-05-13T17:06:12.552Z,5.80
2023-05-13T17:08:40.511Z,5.68
2023-05-13T17:11:15.986Z,5.53
2023-05-13T17:13:44.590Z,5.10
2023-05-13T17:16:12.938Z,5.43
2023-05-13T17:18:41.395Z,5.68
2023-05-13T17:21:09.451Z,5.15
2023-05-13T17:23:36.980Z,5.90
2023-05-13T17:26:04.847Z,6.32
2023-05-13T17:28:35.375Z,6.38
2023-05-13T17:31:04.020Z,5.40
2023-05-13T17:33:31.950Z,5.88
2023-05-13T17:36:00.147Z,6.47
2023-05-13T17:38:28.027Z,5.65
2023-05-13T17:40:56.106Z,5.68
2023-05-13T17:43:23.851Z,6.20
2023-05-13T17:45:51.806Z,5.65
2023-05-13T17:48:19.616Z,4.88
2023-05-13T17:50:47.719Z,5.90
2023-05-13T17:53:15.742Z,5.82
2023-05-13T17:55:46.313Z,7.07
2023-05-13T17:58:19.447Z,7.78
2023-05-13T18:00:49.265Z,8.27
2023-05-13T18:03:17.931Z,8.77
2023-05-13T18:05:45.967Z,7.82
2023-05-13T18:08:13.869Z,7.72
2023-05-13T18:10:41.690Z,7.45
2023-05-13T18:13:09.443Z,7.32
2023-05-13T18:15:37.331Z,7.53
2023-05-13T18:18:05.839Z,7.15
2023-05-13T18:20:34.104Z,8.15
2023-05-13T18:23:01.762Z,7.25
2023-05-13T18:25:30.976Z,7.78
2023-05-13T18:27:59.233Z,7.82
2023-05-13T18:30:28.637Z,8.15
2023-05-13T18:35:26.124Z,7.25
2023-05-13T18:37:55.975Z,7.97
2023-05-13T18:40:25.293Z,7.05
2023-05-13T18:42:53.130Z,8.05
2023-05-13T18:45:21.940Z,8.48
2023-05-13T18:47:49.989Z,7.90
2023-05-13T18:50:17.654Z,7.70
2023-05-13T18:52:50.084Z,7.90
2023-05-13T18:55:18.620Z,8.13
2023-05-13T18:57:49.579Z,7.47
2023-05-13T19:00:20.216Z,7.30
2023-05-13T19:02:48.393Z,8.15
2023-05-13T19:05:16.837Z,8.45
2023-05-13T19:07:45.670Z,7.15
2023-05-13T19:10:13.775Z,7.13
2023-05-13T19:12:41.819Z,8.05
2023-05-13T19:15:10.178Z,7.15
2023-05-13T19:17:40.440Z,7.55
2023-05-13T19:20:09.769Z,8.00
2023-05-13T19:22:38.892Z,7.78
2023-05-13T19:25:06.732Z,7.95
2023-05-13T19:27:34.978Z,8.18
2023-05-13T19:30:03.551Z,7.45
2023-05-13T19:32:32.279Z,7.60
2023-05-13T19:35:01.119Z,7.70
2023-05-13T19:37:29.364Z,7.88
2023-05-13T19:39:57.321Z,8.02
2023-05-13T19:42:31.370Z,7.55
2023-05-13T19:44:59.663Z,7.85
2023-05-13T19:47:30.673Z,7.95
2023-05-13T19:49:58.705Z,7.65
2023-05-13T19:52:30.062Z,8.20
2023-05-13T19:54:58.735Z,7.50
2023-05-13T19:57:29.807Z,8.20
2023-05-13T19:59:58.763Z,7.72
2023-05-13T20:02:26.914Z,7.47
2023-05-13T20:04:54.678Z,8.30
2023-05-13T20:07:22.609Z,7.10
2023-05-13T20:09:52.434Z,7.57
2023-05-13T20:12:22.945Z,7.10
2023-05-13T20:14:58.930Z,6.25
2023-05-13T20:17:28.552Z,6.97
2023-05-13T20:20:01.898Z,7.95
2023-05-13T20:22:32.180Z,7.53
2023-05-13T20:25:04.268Z,7.50
2023-05-13T20:27:34.188Z,8.63
2023-05-13T20:30:04.792Z,8.57
2023-05-13T20:32:34.105Z,12.07
2023-05-13T20:35:02.554Z,12.32
2023-05-13T20:37:31.872Z,17.05
2023-05-13T20:40:00.002Z,18.23
2023-05-13T20:42:27.700Z,28.08
2023-05-13T20:44:56.264Z,44.55
2023-05-13T20:47:23.984Z,13.55
2023-05-13T20:49:51.662Z,23.50
2023-05-13T20:52:19.700Z,26.52
2023-05-13T20:54:48.361Z,20.85
2023-05-13T20:57:16.081Z,19.15
2023-05-13T20:59:43.978Z,27.20
2023-05-13T21:02:11.734Z,24.73
2023-05-13T21:04:40.619Z,11.70
2023-05-13T21:07:08.505Z,13.38
2023-05-13T21:09:37.474Z,17.27
2023-05-13T21:12:06.151Z,11.02
2023-05-13T21:14:35.861Z,17.67
2023-05-13T21:17:03.955Z,12.10
2023-05-13T21:19:31.977Z,14.90
2023-05-13T21:22:04.902Z,16.77
2023-05-13T21:24:33.087Z,13.35
2023-05-13T21:27:00.951Z,33.42
2023-05-13T21:29:30.538Z,23.40
2023-05-13T21:32:01.298Z,15.48
2023-05-13T21:34:29.308Z,14.85
2023-05-13T21:36:57.203Z,15.88
2023-05-13T21:39:25.422Z,15.00
2023-05-13T21:41:56.332Z,14.90
2023-05-13T21:44:27.454Z,14.50
2023-05-13T21:46:55.795Z,14.38
2023-05-13T21:49:25.110Z,14.20
2023-05-13T21:51:53.020Z,14.82
2023-05-13T21:54:23.075Z,13.63
2023-05-13T21:56:52.118Z,13.18
2023-05-13T21:59:19.799Z,15.82
2023-05-13T22:01:48.049Z,18.88
2023-05-13T22:04:16.714Z,15.50
2023-05-13T22:06:44.399Z,15.27
2023-05-13T22:09:11.979Z,15.88
2023-05-13T22:11:40.099Z,14.55
2023-05-13T22:14:08.001Z,16.55
2023-05-13T22:16:36.019Z,14.63
2023-05-13T22:19:04.742Z,15.52
2023-05-13T22:21:32.585Z,14.48
2023-05-13T22:24:00.593Z,15.65
2023-05-13T22:26:29.215Z,15.30
2023-05-13T22:28:57.411Z,14.80
2023-05-13T22:31:27.130Z,15.05
2023-05-13T22:33:55.678Z,15.75
2023-05-13T22:36:23.831Z,15.27
2023-05-13T22:38:58.882Z,15.00
2023-05-13T22:41:28.464Z,14.82
2023-05-13T22:43:59.865Z,15.07
2023-05-13T22:46:28.799Z,15.35
2023-05-13T22:48:57.562Z,15.23
2023-05-13T22:51:26.454Z,15.67
2023-05-13T22:53:57.512Z,16.20
2023-05-13T22:56:26.038Z,15.10
2023-05-13T22:58:53.874Z,16.77
2023-05-13T23:01:21.659Z,15.23
2023-05-13T23:03:50.283Z,16.70
2023-05-13T23:06:18.212Z,15.65
2023-05-13T23:08:45.933Z,16.40
2023-05-13T23:11:14.495Z,17.23
2023-05-13T23:13:42.314Z,16.83
2023-05-13T23:16:10.708Z,16.45
2023-05-13T23:18:38.767Z,16.63
2023-05-13T23:21:09.211Z,16.17
2023-05-13T23:23:37.178Z,16.17
2023-05-13T23:26:06.016Z,16.73
2023-05-13T23:28:33.969Z,17.05
2023-05-13T23:31:01.870Z,17.70
2023-05-13T23:33:29.650Z,19.23
2023-05-13T23:35:57.577Z,18.40
2023-05-13T23:38:25.467Z,18.90
2023-05-13T23:40:56.203Z,17.05
2023-05-13T23:43:24.090Z,17.33
2023-05-13T23:45:51.848Z,18.30
2023-05-13T23:48:19.615Z,17.55
2023-05-13T23:50:47.411Z,17.92
2023-05-13T23:53:16.295Z,18.60
2023-05-13T23:55:46.861Z,16.88
2023-05-13T23:58:17.468Z,17.02
